sensor_id;sensor_type;location;lat;lon;timestamp;P1;durP1;ratioP1;P2;durP2;ratioP2
64597;SDS011;51004;54.692;9.332;2023-12-04T00:00:44;18.52;;;11.35;;
64597;SDS011;51004;54.692;9.332;2023-12-04T00:03:10;15.98;;;9.82;;
64597;SDS011;51004;54.692;9.332;2023-12-04T00:05:35;16.65;;;11.00;;
64597;SDS011;51004;54.692;9.332;2023-12-04T00:08:01;18.48;;;11.57;;
64597;SDS011;51004;54.692;9.332;2023-12-04T00:10:27;18.73;;;11.40;;
64597;SDS011;51004;54.692;9.332;2023-12-04T00:12:53;17.80;;;11.10;;
64597;SDS011;51004;54.692;9.332;2023-12-04T00:15:20;18.42;;;11.32;;
64597;SDS011;51004;54.692;9.332;2023-12-04T00:17:46;17.75;;;11.02;;
64597;SDS011;51004;54.692;9.332;2023-12-04T00:20:12;18.23;;;11.00;;
64597;SDS011;51004;54.692;9.332;2023-12-04T00:22:38;19.73;;;12.10;;
64597;SDS011;51004;54.692;9.332;2023-12-04T00:25:05;17.73;;;10.88;;
64597;SDS011;51004;54.692;9.332;2023-12-04T00:27:35;17.92;;;11.38;;
64597;SDS011;51004;54.692;9.332;2023-12-04T00:30:01;16.70;;;10.93;;
64597;SDS011;51004;54.692;9.332;2023-12-04T00:32:29;19.67;;;11.18;;
64597;SDS011;51004;54.692;9.332;2023-12-04T00:34:55;16.73;;;10.77;;
64597;SDS011;51004;54.692;9.332;2023-12-04T00:37:21;16.85;;;10.73;;
64597;SDS011;51004;54.692;9.332;2023-12-04T00:39:47;19.00;;;12.10;;
64597;SDS011;51004;54.692;9.332;2023-12-04T00:42:13;18.33;;;11.32;;
64597;SDS011;51004;54.692;9.332;2023-12-04T00:44:39;15.15;;;9.93;;
64597;SDS011;51004;54.692;9.332;2023-12-04T00:47:05;16.15;;;11.05;;
64597;SDS011;51004;54.692;9.332;2023-12-04T00:49:31;15.70;;;11.00;;
64597;SDS011;51004;54.692;9.332;2023-12-04T00:51:57;16.92;;;10.85;;
64597;SDS011;51004;54.692;9.332;2023-12-04T00:54:26;16.65;;;11.05;;
64597;SDS011;51004;54.692;9.332;2023-12-04T00:56:52;16.65;;;10.25;;
64597;SDS011;51004;54.692;9.332;2023-12-04T00:59:18;18.35;;;11.00;;
64597;SDS011;51004;54.692;9.332;2023-12-04T01:01:46;16.83;;;10.55;;
64597;SDS011;51004;54.692;9.332;2023-12-04T01:04:12;18.02;;;11.38;;
64597;SDS011;51004;54.692;9.332;2023-12-04T01:06:38;17.52;;;11.30;;
64597;SDS011;51004;54.692;9.332;2023-12-04T01:09:04;18.40;;;11.30;;
64597;SDS011;51004;54.692;9.332;2023-12-04T01:11:30;16.50;;;10.35;;
64597;SDS011;51004;54.692;9.332;2023-12-04T01:13:56;17.85;;;11.40;;
64597;SDS011;51004;54.692;9.332;2023-12-04T01:16:22;18.10;;;11.05;;
64597;SDS011;51004;54.692;9.332;2023-12-04T01:18:48;18.50;;;11.27;;
64597;SDS011;51004;54.692;9.332;2023-12-04T01:21:14;15.98;;;10.63;;
64597;SDS011;51004;54.692;9.332;2023-12-04T01:23:40;16.00;;;11.20;;
64597;SDS011;51004;54.692;9.332;2023-12-04T01:26:06;17.23;;;11.02;;
64597;SDS011;51004;54.692;9.332;2023-12-04T01:28:32;17.48;;;12.23;;
64597;SDS011;51004;54.692;9.332;2023-12-04T01:30:58;18.08;;;11.05;;
64597;SDS011;51004;54.692;9.332;2023-12-04T01:33:24;18.00;;;10.77;;
64597;SDS011;51004;54.692;9.332;2023-12-04T01:35:50;17.38;;;11.23;;
64597;SDS011;51004;54.692;9.332;2023-12-04T01:38:16;17.92;;;11.35;;
64597;SDS011;51004;54.692;9.332;2023-12-04T01:40:42;17.50;;;11.38;;
64597;SDS011;51004;54.692;9.332;2023-12-04T01:43:08;17.52;;;11.93;;
64597;SDS011;51004;54.692;9.332;2023-12-04T01:45:34;17.08;;;11.50;;
64597;SDS011;51004;54.692;9.332;2023-12-04T01:48:00;18.05;;;12.00;;
64597;SDS011;51004;54.692;9.332;2023-12-04T01:50:26;16.85;;;10.93;;
64597;SDS011;51004;54.692;9.332;2023-12-04T01:52:52;20.10;;;12.77;;
64597;SDS011;51004;54.692;9.332;2023-12-04T01:55:19;17.58;;;11.32;;
64597;SDS011;51004;54.692;9.332;2023-12-04T01:57:46;16.30;;;11.75;;
64597;SDS011;51004;54.692;9.332;2023-12-04T02:00:13;19.40;;;12.73;;
64597;SDS011;51004;54.692;9.332;2023-12-04T02:02:39;18.58;;;12.15;;
64597;SDS011;51004;54.692;9.332;2023-12-04T02:05:07;16.85;;;11.43;;
64597;SDS011;51004;54.692;9.332;2023-12-04T02:07:34;19.65;;;12.75;;
64597;SDS011;51004;54.692;9.332;2023-12-04T02:10:02;17.73;;;11.35;;
64597;SDS011;51004;54.692;9.332;2023-12-04T02:12:28;19.08;;;11.93;;
64597;SDS011;51004;54.692;9.332;2023-12-04T02:14:54;16.45;;;11.15;;
64597;SDS011;51004;54.692;9.332;2023-12-04T02:17:20;16.45;;;11.60;;
64597;SDS011;51004;54.692;9.332;2023-12-04T02:19:47;19.25;;;12.15;;
64597;SDS011;51004;54.692;9.332;2023-12-04T02:22:13;18.48;;;13.38;;
64597;SDS011;51004;54.692;9.332;2023-12-04T02:24:39;19.35;;;12.43;;
64597;SDS011;51004;54.692;9.332;2023-12-04T02:27:09;18.05;;;12.95;;
64597;SDS011;51004;54.692;9.332;2023-12-04T02:29:38;17.48;;;11.50;;
64597;SDS011;51004;54.692;9.332;2023-12-04T02:32:05;16.83;;;11.30;;
64597;SDS011;51004;54.692;9.332;2023-12-04T02:34:32;17.80;;;12.13;;
64597;SDS011;51004;54.692;9.332;2023-12-04T02:36:58;18.10;;;11.52;;
64597;SDS011;51004;54.692;9.332;2023-12-04T02:39:25;17.58;;;12.05;;
64597;SDS011;51004;54.692;9.332;2023-12-04T02:41:51;16.77;;;11.50;;
64597;SDS011;51004;54.692;9.332;2023-12-04T02:44:17;19.00;;;12.00;;
64597;SDS011;51004;54.692;9.332;2023-12-04T02:46:43;19.48;;;12.35;;
64597;SDS011;51004;54.692;9.332;2023-12-04T02:49:12;20.05;;;12.80;;
64597;SDS011;51004;54.692;9.332;2023-12-04T02:51:40;18.73;;;12.27;;
64597;SDS011;51004;54.692;9.332;2023-12-04T02:54:06;18.15;;;11.77;;
64597;SDS011;51004;54.692;9.332;2023-12-04T02:56:32;17.08;;;11.85;;
64597;SDS011;51004;54.692;9.332;2023-12-04T02:58:58;17.77;;;12.65;;
64597;SDS011;51004;54.692;9.332;2023-12-04T03:01:24;18.65;;;12.35;;
64597;SDS011;51004;54.692;9.332;2023-12-04T03:03:50;18.63;;;11.95;;
64597;SDS011;51004;54.692;9.332;2023-12-04T03:06:16;17.42;;;11.48;;
64597;SDS011;51004;54.692;9.332;2023-12-04T03:08:42;17.70;;;11.68;;
64597;SDS011;51004;54.692;9.332;2023-12-04T03:11:08;16.88;;;11.77;;
64597;SDS011;51004;54.692;9.332;2023-12-04T03:13:34;18.55;;;11.98;;
64597;SDS011;51004;54.692;9.332;2023-12-04T03:16:00;17.98;;;11.98;;
64597;SDS011;51004;54.692;9.332;2023-12-04T03:18:26;20.23;;;11.90;;
64597;SDS011;51004;54.692;9.332;2023-12-04T03:20:53;18.48;;;12.32;;
64597;SDS011;51004;54.692;9.332;2023-12-04T03:23:19;17.38;;;11.63;;
64597;SDS011;51004;54.692;9.332;2023-12-04T03:25:45;18.10;;;11.93;;
64597;SDS011;51004;54.692;9.332;2023-12-04T03:28:11;15.52;;;10.95;;
64597;SDS011;51004;54.692;9.332;2023-12-04T03:30:41;16.63;;;11.43;;
64597;SDS011;51004;54.692;9.332;2023-12-04T03:33:10;17.70;;;12.15;;
64597;SDS011;51004;54.692;9.332;2023-12-04T03:35:36;17.73;;;11.38;;
64597;SDS011;51004;54.692;9.332;2023-12-04T03:38:02;18.10;;;11.63;;
64597;SDS011;51004;54.692;9.332;2023-12-04T03:40:28;17.45;;;11.90;;
64597;SDS011;51004;54.692;9.332;2023-12-04T03:42:54;17.60;;;11.07;;
64597;SDS011;51004;54.692;9.332;2023-12-04T03:45:20;17.58;;;12.23;;
64597;SDS011;51004;54.692;9.332;2023-12-04T03:47:46;17.20;;;11.50;;
64597;SDS011;51004;54.692;9.332;2023-12-04T03:50:12;18.25;;;11.95;;
64597;SDS011;51004;54.692;9.332;2023-12-04T03:52:38;18.35;;;12.00;;
64597;SDS011;51004;54.692;9.332;2023-12-04T03:55:04;15.98;;;11.70;;
64597;SDS011;51004;54.692;9.332;2023-12-04T03:57:30;15.85;;;11.65;;
64597;SDS011;51004;54.692;9.332;2023-12-04T03:59:56;16.92;;;11.18;;
64597;SDS011;51004;54.692;9.332;2023-12-04T04:02:22;17.40;;;11.32;;
64597;SDS011;51004;54.692;9.332;2023-12-04T04:04:48;16.63;;;11.15;;
64597;SDS011;51004;54.692;9.332;2023-12-04T04:07:15;16.13;;;11.27;;
64597;SDS011;51004;54.692;9.332;2023-12-04T04:09:41;18.73;;;12.13;;
64597;SDS011;51004;54.692;9.332;2023-12-04T04:12:07;17.00;;;10.82;;
64597;SDS011;51004;54.692;9.332;2023-12-04T04:14:33;17.92;;;11.55;;
64597;SDS011;51004;54.692;9.332;2023-12-04T04:16:59;17.27;;;11.80;;
64597;SDS011;51004;54.692;9.332;2023-12-04T04:19:25;16.00;;;11.50;;
64597;SDS011;51004;54.692;9.332;2023-12-04T04:21:51;16.70;;;11.23;;
64597;SDS011;51004;54.692;9.332;2023-12-04T04:24:17;16.15;;;11.60;;
64597;SDS011;51004;54.692;9.332;2023-12-04T04:26:43;15.85;;;11.27;;
64597;SDS011;51004;54.692;9.332;2023-12-04T04:29:09;16.77;;;11.48;;
64597;SDS011;51004;54.692;9.332;2023-12-04T04:31:35;18.25;;;12.35;;
64597;SDS011;51004;54.692;9.332;2023-12-04T04:34:01;14.77;;;10.40;;
64597;SDS011;51004;54.692;9.332;2023-12-04T04:36:30;14.85;;;10.45;;
64597;SDS011;51004;54.692;9.332;2023-12-04T04:38:56;16.77;;;10.75;;
64597;SDS011;51004;54.692;9.332;2023-12-04T04:41:22;17.63;;;11.57;;
64597;SDS011;51004;54.692;9.332;2023-12-04T04:43:48;16.13;;;10.93;;
64597;SDS011;51004;54.692;9.332;2023-12-04T04:46:14;17.30;;;11.25;;
64597;SDS011;51004;54.692;9.332;2023-12-04T04:48:40;16.48;;;11.63;;
64597;SDS011;51004;54.692;9.332;2023-12-04T04:51:06;18.40;;;11.30;;
64597;SDS011;51004;54.692;9.332;2023-12-04T04:53:32;15.35;;;10.85;;
64597;SDS011;51004;54.692;9.332;2023-12-04T04:55:58;17.40;;;11.63;;
64597;SDS011;51004;54.692;9.332;2023-12-04T04:58:24;15.32;;;10.85;;
64597;SDS011;51004;54.692;9.332;2023-12-04T05:00:50;16.55;;;11.20;;
64597;SDS011;51004;54.692;9.332;2023-12-04T05:03:16;15.73;;;10.82;;
64597;SDS011;51004;54.692;9.332;2023-12-04T05:05:42;16.08;;;11.07;;
64597;SDS011;51004;54.692;9.332;2023-12-04T05:08:08;14.88;;;10.15;;
64597;SDS011;51004;54.692;9.332;2023-12-04T05:10:34;14.23;;;10.45;;
64597;SDS011;51004;54.692;9.332;2023-12-04T05:13:00;16.80;;;11.57;;
64597;SDS011;51004;54.692;9.332;2023-12-04T05:15:26;15.65;;;10.75;;
64597;SDS011;51004;54.692;9.332;2023-12-04T05:17:53;14.10;;;11.27;;
64597;SDS011;51004;54.692;9.332;2023-12-04T05:20:19;14.30;;;10.68;;
64597;SDS011;51004;54.692;9.332;2023-12-04T05:22:45;14.48;;;10.73;;
64597;SDS011;51004;54.692;9.332;2023-12-04T05:25:11;15.40;;;10.07;;
64597;SDS011;51004;54.692;9.332;2023-12-04T05:27:37;14.85;;;10.35;;
64597;SDS011;51004;54.692;9.332;2023-12-04T05:30:03;15.80;;;10.82;;
64597;SDS011;51004;54.692;9.332;2023-12-04T05:32:29;14.73;;;10.27;;
64597;SDS011;51004;54.692;9.332;2023-12-04T05:34:55;15.45;;;10.32;;
64597;SDS011;51004;54.692;9.332;2023-12-04T05:37:21;14.77;;;10.50;;
64597;SDS011;51004;54.692;9.332;2023-12-04T05:39:47;16.20;;;9.93;;
64597;SDS011;51004;54.692;9.332;2023-12-04T05:42:13;16.40;;;11.38;;
64597;SDS011;51004;54.692;9.332;2023-12-04T05:44:39;15.30;;;10.23;;
64597;SDS011;51004;54.692;9.332;2023-12-04T05:47:05;15.20;;;11.05;;
64597;SDS011;51004;54.692;9.332;2023-12-04T05:49:33;16.33;;;11.52;;
64597;SDS011;51004;54.692;9.332;2023-12-04T05:51:59;14.18;;;10.05;;
64597;SDS011;51004;54.692;9.332;2023-12-04T05:54:25;14.40;;;10.15;;
64597;SDS011;51004;54.692;9.332;2023-12-04T05:56:51;15.55;;;10.05;;
64597;SDS011;51004;54.692;9.332;2023-12-04T05:59:17;15.15;;;10.75;;
64597;SDS011;51004;54.692;9.332;2023-12-04T06:01:43;16.08;;;10.70;;
64597;SDS011;51004;54.692;9.332;2023-12-04T06:04:09;15.50;;;10.13;;
64597;SDS011;51004;54.692;9.332;2023-12-04T06:06:35;13.60;;;9.98;;
64597;SDS011;51004;54.692;9.332;2023-12-04T06:09:04;16.38;;;10.93;;
64597;SDS011;51004;54.692;9.332;2023-12-04T06:11:30;14.23;;;10.32;;
64597;SDS011;51004;54.692;9.332;2023-12-04T06:13:56;13.63;;;9.95;;
64597;SDS011;51004;54.692;9.332;2023-12-04T06:16:23;16.58;;;10.48;;
64597;SDS011;51004;54.692;9.332;2023-12-04T06:18:49;14.10;;;9.85;;
64597;SDS011;51004;54.692;9.332;2023-12-04T06:21:15;15.18;;;9.98;;
64597;SDS011;51004;54.692;9.332;2023-12-04T06:23:41;15.13;;;9.82;;
64597;SDS011;51004;54.692;9.332;2023-12-04T06:26:08;14.55;;;10.27;;
64597;SDS011;51004;54.692;9.332;2023-12-04T06:28:34;16.58;;;10.68;;
64597;SDS011;51004;54.692;9.332;2023-12-04T06:31:00;15.10;;;10.45;;
64597;SDS011;51004;54.692;9.332;2023-12-04T06:33:26;15.20;;;10.15;;
64597;SDS011;51004;54.692;9.332;2023-12-04T06:35:52;13.65;;;9.45;;
64597;SDS011;51004;54.692;9.332;2023-12-04T06:38:19;14.23;;;9.82;;
64597;SDS011;51004;54.692;9.332;2023-12-04T06:40:49;15.95;;;11.00;;
64597;SDS011;51004;54.692;9.332;2023-12-04T06:43:15;14.63;;;9.70;;
64597;SDS011;51004;54.692;9.332;2023-12-04T06:45:43;14.50;;;10.10;;
64597;SDS011;51004;54.692;9.332;2023-12-04T06:48:10;14.98;;;10.65;;
64597;SDS011;51004;54.692;9.332;2023-12-04T06:50:38;14.68;;;9.82;;
64597;SDS011;51004;54.692;9.332;2023-12-04T06:53:05;15.70;;;10.38;;
64597;SDS011;51004;54.692;9.332;2023-12-04T06:55:31;16.15;;;10.70;;
64597;SDS011;51004;54.692;9.332;2023-12-04T06:57:58;14.85;;;9.70;;
64597;SDS011;51004;54.692;9.332;2023-12-04T07:00:24;14.93;;;10.15;;
64597;SDS011;51004;54.692;9.332;2023-12-04T07:02:50;12.95;;;8.95;;
64597;SDS011;51004;54.692;9.332;2023-12-04T07:05:20;13.70;;;9.50;;
64597;SDS011;51004;54.692;9.332;2023-12-04T07:07:46;13.82;;;10.27;;
64597;SDS011;51004;54.692;9.332;2023-12-04T07:10:13;14.70;;;9.77;;
64597;SDS011;51004;54.692;9.332;2023-12-04T07:12:39;16.08;;;10.85;;
64597;SDS011;51004;54.692;9.332;2023-12-04T07:15:06;16.23;;;9.90;;
64597;SDS011;51004;54.692;9.332;2023-12-04T07:17:32;12.45;;;8.60;;
64597;SDS011;51004;54.692;9.332;2023-12-04T07:19:58;15.65;;;10.00;;
64597;SDS011;51004;54.692;9.332;2023-12-04T07:22:24;15.27;;;10.68;;
64597;SDS011;51004;54.692;9.332;2023-12-04T07:24:50;17.05;;;10.40;;
64597;SDS011;51004;54.692;9.332;2023-12-04T07:27:16;13.93;;;9.07;;
64597;SDS011;51004;54.692;9.332;2023-12-04T07:29:45;13.93;;;9.52;;
64597;SDS011;51004;54.692;9.332;2023-12-04T07:32:11;16.75;;;10.23;;
64597;SDS011;51004;54.692;9.332;2023-12-04T07:34:37;15.93;;;10.00;;
64597;SDS011;51004;54.692;9.332;2023-12-04T07:37:03;12.93;;;8.85;;
64597;SDS011;51004;54.692;9.332;2023-12-04T07:39:29;16.90;;;10.13;;
64597;SDS011;51004;54.692;9.332;2023-12-04T07:41:55;14.45;;;10.27;;
64597;SDS011;51004;54.692;9.332;2023-12-04T07:44:24;13.35;;;9.77;;
64597;SDS011;51004;54.692;9.332;2023-12-04T07:46:50;13.80;;;9.20;;
64597;SDS011;51004;54.692;9.332;2023-12-04T07:49:16;12.65;;;9.00;;
64597;SDS011;51004;54.692;9.332;2023-12-04T07:51:42;12.88;;;9.38;;
64597;SDS011;51004;54.692;9.332;2023-12-04T07:54:17;14.75;;;9.98;;
64597;SDS011;51004;54.692;9.332;2023-12-04T07:56:51;14.20;;;9.50;;
64597;SDS011;51004;54.692;9.332;2023-12-04T07:59:18;12.93;;;9.30;;
64597;SDS011;51004;54.692;9.332;2023-12-04T08:01:44;13.88;;;9.07;;
64597;SDS011;51004;54.692;9.332;2023-12-04T08:04:13;14.23;;;9.40;;
64597;SDS011;51004;54.692;9.332;2023-12-04T08:06:39;14.07;;;9.52;;
64597;SDS011;51004;54.692;9.332;2023-12-04T08:09:06;14.90;;;9.73;;
64597;SDS011;51004;54.692;9.332;2023-12-04T08:11:35;13.52;;;9.15;;
64597;SDS011;51004;54.692;9.332;2023-12-04T08:14:03;13.57;;;9.10;;
64597;SDS011;51004;54.692;9.332;2023-12-04T08:16:29;14.80;;;9.57;;
64597;SDS011;51004;54.692;9.332;2023-12-04T08:18:56;13.63;;;9.27;;
64597;SDS011;51004;54.692;9.332;2023-12-04T08:21:22;14.23;;;9.35;;
64597;SDS011;51004;54.692;9.332;2023-12-04T08:23:48;14.85;;;9.45;;
64597;SDS011;51004;54.692;9.332;2023-12-04T08:26:20;14.93;;;8.75;;
64597;SDS011;51004;54.692;9.332;2023-12-04T08:28:46;13.35;;;9.35;;
64597;SDS011;51004;54.692;9.332;2023-12-04T08:31:12;13.30;;;9.05;;
64597;SDS011;51004;54.692;9.332;2023-12-04T08:33:38;14.50;;;9.48;;
64597;SDS011;51004;54.692;9.332;2023-12-04T08:36:04;14.57;;;9.43;;
64597;SDS011;51004;54.692;9.332;2023-12-04T08:38:30;15.20;;;10.13;;
64597;SDS011;51004;54.692;9.332;2023-12-04T08:40:56;14.27;;;9.32;;
64597;SDS011;51004;54.692;9.332;2023-12-04T08:43:22;12.25;;;8.23;;
64597;SDS011;51004;54.692;9.332;2023-12-04T08:45:49;15.07;;;8.45;;
64597;SDS011;51004;54.692;9.332;2023-12-04T08:48:15;14.18;;;9.15;;
64597;SDS011;51004;54.692;9.332;2023-12-04T08:50:41;13.63;;;8.45;;
64597;SDS011;51004;54.692;9.332;2023-12-04T08:53:07;13.48;;;8.90;;
64597;SDS011;51004;54.692;9.332;2023-12-04T08:55:32;14.15;;;8.65;;
64597;SDS011;51004;54.692;9.332;2023-12-04T08:57:58;13.85;;;9.10;;
64597;SDS011;51004;54.692;9.332;2023-12-04T09:00:28;12.77;;;9.18;;
64597;SDS011;51004;54.692;9.332;2023-12-04T09:02:54;12.15;;;7.90;;
64597;SDS011;51004;54.692;9.332;2023-12-04T09:05:20;12.32;;;8.15;;
64597;SDS011;51004;54.692;9.332;2023-12-04T09:07:47;11.63;;;8.70;;
64597;SDS011;51004;54.692;9.332;2023-12-04T09:10:13;13.32;;;9.25;;
64597;SDS011;51004;54.692;9.332;2023-12-04T09:12:39;12.98;;;8.95;;
64597;SDS011;51004;54.692;9.332;2023-12-04T09:15:05;11.32;;;8.38;;
64597;SDS011;51004;54.692;9.332;2023-12-04T09:17:31;11.32;;;8.15;;
64597;SDS011;51004;54.692;9.332;2023-12-04T09:19:58;13.05;;;8.60;;
64597;SDS011;51004;54.692;9.332;2023-12-04T09:22:24;14.25;;;9.05;;
64597;SDS011;51004;54.692;9.332;2023-12-04T09:24:50;12.52;;;8.38;;
64597;SDS011;51004;54.692;9.332;2023-12-04T09:27:16;14.20;;;8.90;;
64597;SDS011;51004;54.692;9.332;2023-12-04T09:29:42;12.25;;;8.80;;
64597;SDS011;51004;54.692;9.332;2023-12-04T09:32:08;13.77;;;8.90;;
64597;SDS011;51004;54.692;9.332;2023-12-04T09:34:40;12.40;;;8.18;;
64597;SDS011;51004;54.692;9.332;2023-12-04T09:37:06;13.18;;;8.85;;
64597;SDS011;51004;54.692;9.332;2023-12-04T09:39:33;13.60;;;8.65;;
64597;SDS011;51004;54.692;9.332;2023-12-04T09:41:59;12.10;;;8.20;;
64597;SDS011;51004;54.692;9.332;2023-12-04T09:44:25;13.25;;;8.27;;
64597;SDS011;51004;54.692;9.332;2023-12-04T09:46:56;12.32;;;8.23;;
64597;SDS011;51004;54.692;9.332;2023-12-04T09:49:23;13.75;;;8.55;;
64597;SDS011;51004;54.692;9.332;2023-12-04T09:51:49;11.77;;;8.10;;
64597;SDS011;51004;54.692;9.332;2023-12-04T09:54:16;12.18;;;8.75;;
64597;SDS011;51004;54.692;9.332;2023-12-04T09:56:44;12.60;;;9.02;;
64597;SDS011;51004;54.692;9.332;2023-12-04T09:59:10;11.02;;;8.32;;
64597;SDS011;51004;54.692;9.332;2023-12-04T10:01:39;12.07;;;8.43;;
64597;SDS011;51004;54.692;9.332;2023-12-04T10:04:05;11.77;;;8.00;;
64597;SDS011;51004;54.692;9.332;2023-12-04T10:06:39;11.15;;;7.47;;
64597;SDS011;51004;54.692;9.332;2023-12-04T10:09:05;12.85;;;8.77;;
64597;SDS011;51004;54.692;9.332;2023-12-04T10:11:39;12.75;;;8.80;;
64597;SDS011;51004;54.692;9.332;2023-12-04T10:14:05;14.40;;;8.45;;
64597;SDS011;51004;54.692;9.332;2023-12-04T10:16:38;12.13;;;8.10;;
64597;SDS011;51004;54.692;9.332;2023-12-04T10:19:13;11.80;;;8.80;;
64597;SDS011;51004;54.692;9.332;2023-12-04T10:21:40;11.90;;;8.70;;
64597;SDS011;51004;54.692;9.332;2023-12-04T10:24:06;12.55;;;8.40;;
64597;SDS011;51004;54.692;9.332;2023-12-04T10:26:33;11.85;;;7.70;;
64597;SDS011;51004;54.692;9.332;2023-12-04T10:29:00;12.68;;;8.10;;
64597;SDS011;51004;54.692;9.332;2023-12-04T10:31:26;11.25;;;7.75;;
64597;SDS011;51004;54.692;9.332;2023-12-04T10:33:52;12.65;;;8.13;;
64597;SDS011;51004;54.692;9.332;2023-12-04T10:36:19;10.38;;;7.15;;
64597;SDS011;51004;54.692;9.332;2023-12-04T10:38:45;11.07;;;8.10;;
64597;SDS011;51004;54.692;9.332;2023-12-04T10:41:14;11.80;;;8.35;;
64597;SDS011;51004;54.692;9.332;2023-12-04T10:43:53;11.77;;;7.95;;
64597;SDS011;51004;54.692;9.332;2023-12-04T10:46:22;13.60;;;8.10;;
64597;SDS011;51004;54.692;9.332;2023-12-04T10:48:49;11.43;;;7.00;;
64597;SDS011;51004;54.692;9.332;2023-12-04T10:51:15;12.38;;;8.55;;
64597;SDS011;51004;54.692;9.332;2023-12-04T10:53:42;11.48;;;7.25;;
64597;SDS011;51004;54.692;9.332;2023-12-04T10:56:10;11.35;;;7.70;;
64597;SDS011;51004;54.692;9.332;2023-12-04T10:58:39;11.95;;;7.57;;
64597;SDS011;51004;54.692;9.332;2023-12-04T11:01:05;11.80;;;7.45;;
64597;SDS011;51004;54.692;9.332;2023-12-04T11:03:52;11.25;;;7.55;;
64597;SDS011;51004;54.692;9.332;2023-12-04T11:06:22;10.90;;;7.35;;
64597;SDS011;51004;54.692;9.332;2023-12-04T11:08:49;10.55;;;7.55;;
64597;SDS011;51004;54.692;9.332;2023-12-04T11:11:19;11.95;;;8.05;;
64597;SDS011;51004;54.692;9.332;2023-12-04T11:13:51;13.02;;;8.00;;
64597;SDS011;51004;54.692;9.332;2023-12-04T11:18:51;11.95;;;7.40;;
64597;SDS011;51004;54.692;9.332;2023-12-04T11:21:17;12.55;;;8.50;;
64597;SDS011;51004;54.692;9.332;2023-12-04T11:23:44;11.00;;;7.70;;
64597;SDS011;51004;54.692;9.332;2023-12-04T11:26:10;12.23;;;7.68;;
64597;SDS011;51004;54.692;9.332;2023-12-04T11:28:37;10.05;;;7.50;;
64597;SDS011;51004;54.692;9.332;2023-12-04T11:31:04;12.18;;;8.75;;
64597;SDS011;51004;54.692;9.332;2023-12-04T11:33:34;11.63;;;7.43;;
64597;SDS011;51004;54.692;9.332;2023-12-04T11:36:11;12.23;;;7.38;;
64597;SDS011;51004;54.692;9.332;2023-12-04T11:38:37;10.82;;;7.55;;
64597;SDS011;51004;54.692;9.332;2023-12-04T11:41:37;10.50;;;7.50;;
64597;SDS011;51004;54.692;9.332;2023-12-04T11:43:57;10.95;;;7.45;;
64597;SDS011;51004;54.692;9.332;2023-12-04T11:46:25;11.00;;;7.78;;
64597;SDS011;51004;54.692;9.332;2023-12-04T11:54:11;9.55;;;7.03;;
64597;SDS011;51004;54.692;9.332;2023-12-04T11:56:40;11.63;;;8.35;;
64597;SDS011;51004;54.692;9.332;2023-12-04T11:59:07;12.13;;;7.88;;
64597;SDS011;51004;54.692;9.332;2023-12-04T12:01:33;10.93;;;7.38;;
64597;SDS011;51004;54.692;9.332;2023-12-04T12:04:01;11.50;;;7.97;;
64597;SDS011;51004;54.692;9.332;2023-12-04T12:06:27;11.82;;;8.05;;
64597;SDS011;51004;54.692;9.332;2023-12-04T12:08:53;10.60;;;7.05;;
64597;SDS011;51004;54.692;9.332;2023-12-04T12:11:22;10.10;;;7.15;;
64597;SDS011;51004;54.692;9.332;2023-12-04T12:13:48;11.20;;;8.00;;
64597;SDS011;51004;54.692;9.332;2023-12-04T12:16:14;10.07;;;7.43;;
64597;SDS011;51004;54.692;9.332;2023-12-04T12:18:40;9.98;;;7.30;;
64597;SDS011;51004;54.692;9.332;2023-12-04T12:21:07;9.80;;;6.90;;
64597;SDS011;51004;54.692;9.332;2023-12-04T12:23:33;11.40;;;7.32;;
64597;SDS011;51004;54.692;9.332;2023-12-04T12:25:59;12.70;;;7.78;;
64597;SDS011;51004;54.692;9.332;2023-12-04T12:28:25;11.73;;;7.57;;
64597;SDS011;51004;54.692;9.332;2023-12-04T12:30:51;12.23;;;7.60;;
64597;SDS011;51004;54.692;9.332;2023-12-04T12:33:20;10.55;;;7.38;;
64597;SDS011;51004;54.692;9.332;2023-12-04T12:35:47;10.32;;;7.40;;
64597;SDS011;51004;54.692;9.332;2023-12-04T12:40:44;11.50;;;8.05;;
64597;SDS011;51004;54.692;9.332;2023-12-04T12:43:10;12.43;;;8.10;;
64597;SDS011;51004;54.692;9.332;2023-12-04T12:45:42;10.48;;;7.55;;
64597;SDS011;51004;54.692;9.332;2023-12-04T12:48:15;11.03;;;7.43;;
64597;SDS011;51004;54.692;9.332;2023-12-04T12:50:45;11.17;;;7.23;;
64597;SDS011;51004;54.692;9.332;2023-12-04T12:53:13;10.77;;;7.53;;
64597;SDS011;51004;54.692;9.332;2023-12-04T12:55:42;10.90;;;7.78;;
64597;SDS011;51004;54.692;9.332;2023-12-04T12:58:09;13.27;;;7.90;;
64597;SDS011;51004;54.692;9.332;2023-12-04T13:00:35;12.15;;;7.82;;
64597;SDS011;51004;54.692;9.332;2023-12-04T13:03:01;10.48;;;7.47;;
64597;SDS011;51004;54.692;9.332;2023-12-04T13:05:27;11.50;;;7.85;;
64597;SDS011;51004;54.692;9.332;2023-12-04T13:07:53;11.20;;;8.00;;
64597;SDS011;51004;54.692;9.332;2023-12-04T13:10:20;11.32;;;7.07;;
64597;SDS011;51004;54.692;9.332;2023-12-04T13:12:48;9.75;;;6.85;;
64597;SDS011;51004;54.692;9.332;2023-12-04T13:18:21;11.88;;;7.60;;
64597;SDS011;51004;54.692;9.332;2023-12-04T13:20:47;12.60;;;8.45;;
64597;SDS011;51004;54.692;9.332;2023-12-04T13:23:15;10.52;;;7.57;;
64597;SDS011;51004;54.692;9.332;2023-12-04T13:25:47;12.07;;;7.93;;
64597;SDS011;51004;54.692;9.332;2023-12-04T13:28:16;12.32;;;8.02;;
64597;SDS011;51004;54.692;9.332;2023-12-04T13:30:47;10.60;;;7.85;;
64597;SDS011;51004;54.692;9.332;2023-12-04T13:33:17;10.52;;;7.25;;
64597;SDS011;51004;54.692;9.332;2023-12-04T13:35:43;10.27;;;7.57;;
64597;SDS011;51004;54.692;9.332;2023-12-04T13:38:12;12.23;;;7.95;;
64597;SDS011;51004;54.692;9.332;2023-12-04T13:40:44;13.30;;;8.75;;
64597;SDS011;51004;54.692;9.332;2023-12-04T13:43:25;12.33;;;8.47;;
64597;SDS011;51004;54.692;9.332;2023-12-04T13:46:10;11.63;;;7.60;;
64597;SDS011;51004;54.692;9.332;2023-12-04T13:48:39;11.65;;;7.65;;
64597;SDS011;51004;54.692;9.332;2023-12-04T13:51:11;11.18;;;7.70;;
64597;SDS011;51004;54.692;9.332;2023-12-04T13:53:38;11.45;;;7.72;;
64597;SDS011;51004;54.692;9.332;2023-12-04T13:56:09;10.77;;;7.90;;
64597;SDS011;51004;54.692;9.332;2023-12-04T13:58:51;10.77;;;7.65;;
64597;SDS011;51004;54.692;9.332;2023-12-04T14:01:27;10.23;;;7.15;;
64597;SDS011;51004;54.692;9.332;2023-12-04T14:03:54;12.38;;;7.80;;
64597;SDS011;51004;54.692;9.332;2023-12-04T14:06:28;11.77;;;8.05;;
64597;SDS011;51004;54.692;9.332;2023-12-04T14:09:02;11.57;;;8.18;;
64597;SDS011;51004;54.692;9.332;2023-12-04T14:11:52;13.40;;;8.30;;
64597;SDS011;51004;54.692;9.332;2023-12-04T14:14:36;11.82;;;7.60;;
64597;SDS011;51004;54.692;9.332;2023-12-04T14:17:03;10.90;;;7.93;;
64597;SDS011;51004;54.692;9.332;2023-12-04T14:19:37;12.07;;;8.70;;
64597;SDS011;51004;54.692;9.332;2023-12-04T14:22:25;11.73;;;8.23;;
64597;SDS011;51004;54.692;9.332;2023-12-04T14:27:32;11.55;;;8.10;;
64597;SDS011;51004;54.692;9.332;2023-12-04T14:29:58;11.60;;;8.25;;
64597;SDS011;51004;54.692;9.332;2023-12-04T14:32:27;10.73;;;7.85;;
64597;SDS011;51004;54.692;9.332;2023-12-04T14:34:53;10.35;;;7.10;;
64597;SDS011;51004;54.692;9.332;2023-12-04T14:37:19;10.27;;;6.82;;
64597;SDS011;51004;54.692;9.332;2023-12-04T14:39:45;11.35;;;7.70;;
64597;SDS011;51004;54.692;9.332;2023-12-04T14:42:12;12.60;;;8.18;;
64597;SDS011;51004;54.692;9.332;2023-12-04T14:44:41;12.48;;;8.35;;